Time;durP1;ratioP1;P1;durP2;ratioP2;P2;SDS_P1;SDS_P2;PMS_P1;PMS_P2;Temp;Humidity;BMP_temperature;BMP_pressure;BME280_temperature;BME280_humidity;BME280_pressure;Samples;Min_cycle;Max_cycle;Signal;HPM_P1;HPM_P2
2022/07/09 00:00:17;;;;;;;0.00;0.00;;;22.30;74.50;;;;;;3969219;29;20568;-67
2022/07/09 00:02:40;;;;;;;0.00;0.00;;;22.30;74.50;;;;;;3969279;29;20054;-66
2022/07/09 00:05:04;;;;;;;0.10;0.10;;;22.40;74.60;;;;;;3970324;29;20069;-66
2022/07/09 00:07:28;;;;;;;0.00;0.00;;;22.40;74.60;;;;;;3948463;29;20135;-66
2022/07/09 00:09:52;;;;;;;0.00;0.00;;;22.30;74.50;;;;;;3953063;29;20085;-66
2022/07/09 00:12:15;;;;;;;0.10;0.10;;;22.30;74.50;;;;;;3953247;29;20539;-67
2022/07/09 00:14:40;;;;;;;0.00;0.00;;;22.30;74.50;;;;;;3953183;29;20055;-66
2022/07/09 00:17:03;;;;;;;0.00;0.00;;;22.30;74.50;;;;;;3952096;29;20062;-66
2022/07/09 00:19:28;;;;;;;0.73;0.32;;;22.30;74.50;;;;;;3965477;29;20065;-67
2022/07/09 00:21:51;;;;;;;0.00;0.00;;;22.30;74.50;;;;;;3969600;29;20057;-66
2022/07/09 00:24:14;;;;;;;0.00;0.00;;;22.30;74.50;;;;;;3971511;29;20059;-67
2022/07/09 00:26:37;;;;;;;0.03;0.03;;;22.30;74.60;;;;;;3969805;29;20863;-66
2022/07/09 00:29:00;;;;;;;0.20;0.20;;;22.30;74.60;;;;;;3969591;29;20387;-66
2022/07/09 00:31:24;;;;;;;0.00;0.00;;;22.30;74.50;;;;;;3971366;29;20055;-66
2022/07/09 00:33:47;;;;;;;0.00;0.00;;;22.30;74.50;;;;;;3956222;29;20523;-66
2022/07/09 00:36:11;;;;;;;0.00;0.00;;;22.30;74.50;;;;;;3955413;29;20614;-67
2022/07/09 00:38:35;;;;;;;0.10;0.10;;;22.30;74.50;;;;;;3954527;29;20499;-67
2022/07/09 00:40:59;;;;;;;0.00;0.00;;;22.20;74.50;;;;;;3953067;29;20484;-67
2022/07/09 00:43:24;;;;;;;0.00;0.00;;;22.30;74.60;;;;;;3939129;29;20779;-67
2022/07/09 00:45:48;;;;;;;0.00;0.00;;;22.30;74.50;;;;;;3950984;29;20059;-67
2022/07/09 00:48:13;;;;;;;0.13;0.13;;;22.20;74.50;;;;;;3960989;29;20381;-67
2022/07/09 00:50:36;;;;;;;0.00;0.00;;;22.20;74.60;;;;;;3967536;29;20047;-67
2022/07/09 00:53:00;;;;;;;0.10;0.10;;;22.30;74.60;;;;;;3965244;29;20598;-67
2022/07/09 00:55:23;;;;;;;0.03;0.03;;;22.20;74.60;;;;;;3967312;29;20657;-67
2022/07/09 00:57:46;;;;;;;0.00;0.00;;;22.20;74.60;;;;;;3965115;29;20067;-67
2022/07/09 01:00:10;;;;;;;1.95;1.48;;;22.20;74.60;;;;;;3951140;29;20159;-67
2022/07/09 01:02:34;;;;;;;0.00;0.00;;;22.20;74.60;;;;;;3966122;29;20525;-67
2022/07/09 01:04:59;;;;;;;0.20;0.20;;;22.20;74.60;;;;;;3951419;29;20051;-67
2022/07/09 01:07:22;;;;;;;0.20;0.20;;;22.20;74.60;;;;;;3965215;29;20516;-67
2022/07/09 01:09:45;;;;;;;0.00;0.00;;;22.20;74.60;;;;;;3965126;29;20058;-67
2022/07/09 01:12:09;;;;;;;0.00;0.00;;;22.20;74.60;;;;;;3959809;29;20596;-66
2022/07/09 01:14:32;;;;;;;0.00;0.00;;;22.20;74.60;;;;;;3952633;29;20233;-66
2022/07/09 01:17:00;;;;;;;0.00;0.00;;;22.20;74.70;;;;;;3954964;29;20051;-68
2022/07/09 01:19:23;;;;;;;0.32;0.32;;;22.20;74.70;;;;;;3949626;29;20051;-66
2022/07/09 01:21:47;;;;;;;0.10;0.10;;;22.20;74.70;;;;;;3953869;29;20070;-66
2022/07/09 01:24:10;;;;;;;0.00;0.00;;;22.20;74.70;;;;;;3954399;29;20146;-66
2022/07/09 01:26:35;;;;;;;0.00;0.00;;;22.20;74.70;;;;;;3968091;29;20051;-66
2022/07/09 01:28:59;;;;;;;0.00;0.00;;;22.20;74.70;;;;;;3965303;29;20055;-66
2022/07/09 01:31:22;;;;;;;0.00;0.00;;;22.20;74.70;;;;;;3953020;29;20221;-63
2022/07/09 01:33:46;;;;;;;0.00;0.00;;;22.20;74.70;;;;;;3952439;29;20047;-63
2022/07/09 01:36:09;;;;;;;0.00;0.00;;;22.20;74.80;;;;;;3951402;29;20055;-64
2022/07/09 01:38:34;;;;;;;0.20;0.20;;;22.20;74.80;;;;;;3952663;29;20051;-62
2022/07/09 01:40:58;;;;;;;0.00;0.00;;;22.20;74.90;;;;;;3955780;29;20055;-62
2022/07/09 01:43:21;;;;;;;0.00;0.00;;;22.20;75.80;;;;;;3968679;29;20088;-63
2022/07/09 01:45:44;;;;;;;0.00;0.00;;;22.20;74.90;;;;;;3969509;29;20182;-64
2022/07/09 01:48:08;;;;;;;0.00;0.00;;;22.20;74.90;;;;;;3968778;29;20058;-63
2022/07/09 01:50:32;;;;;;;0.00;0.00;;;22.20;74.90;;;;;;3941436;29;20174;-63
2022/07/09 01:52:55;;;;;;;0.00;0.00;;;22.20;75.00;;;;;;3954946;29;20054;-63
2022/07/09 01:55:19;;;;;;;0.00;0.00;;;22.20;75.00;;;;;;3942040;29;20060;-63
2022/07/09 01:57:42;;;;;;;0.00;0.00;;;22.20;75.00;;;;;;3952737;30;20132;-63
2022/07/09 02:00:07;;;;;;;0.00;0.00;;;22.20;75.10;;;;;;3940507;30;20058;-64
2022/07/09 02:02:38;;;;;;;0.00;0.00;;;22.20;75.10;;;;;;3939699;30;20592;-65
2022/07/09 02:05:01;;;;;;;0.00;0.00;;;22.10;75.10;;;;;;3953344;30;20143;-66
2022/07/09 02:07:25;;;;;;;0.17;0.17;;;22.10;75.10;;;;;;3952664;29;20536;-63
2022/07/09 02:09:49;;;;;;;0.00;0.00;;;22.10;75.10;;;;;;3968060;29;20598;-63
2022/07/09 02:12:13;;;;;;;0.00;0.00;;;22.20;75.20;;;;;;3968800;29;20058;-63
2022/07/09 02:14:36;;;;;;;0.00;0.00;;;22.10;75.20;;;;;;3965600;29;20137;-66
2022/07/09 02:16:59;;;;;;;0.00;0.00;;;22.10;75.20;;;;;;3965804;29;20622;-66
2022/07/09 02:19:24;;;;;;;0.22;0.22;;;22.10;75.30;;;;;;3952126;29;20117;-66
2022/07/09 02:21:47;;;;;;;0.00;0.00;;;22.10;75.30;;;;;;3963850;29;20055;-66
2022/07/09 02:24:10;;;;;;;0.00;0.00;;;22.10;75.30;;;;;;3968811;29;20081;-66
2022/07/09 02:26:34;;;;;;;0.00;0.00;;;22.10;75.30;;;;;;3967719;29;20062;-66
2022/07/09 02:28:58;;;;;;;0.00;0.00;;;22.10;75.30;;;;;;3954447;29;20464;-65
2022/07/09 02:31:21;;;;;;;0.00;0.00;;;22.10;75.40;;;;;;3956156;29;20070;-66
2022/07/09 02:33:44;;;;;;;0.00;0.00;;;22.10;75.40;;;;;;3953905;29;20044;-66
2022/07/09 02:36:07;;;;;;;0.00;0.00;;;22.10;75.40;;;;;;3927502;29;20417;-66
2022/07/09 02:38:31;;;;;;;0.00;0.00;;;22.10;75.40;;;;;;3941020;29;20063;-66
2022/07/09 02:40:54;;;;;;;0.25;0.25;;;22.10;75.50;;;;;;3950986;29;20055;-64
2022/07/09 02:43:18;;;;;;;0.05;0.05;;;22.10;75.60;;;;;;3959025;29;20062;-66
2022/07/09 02:45:43;;;;;;;0.00;0.00;;;22.10;75.50;;;;;;3968631;29;20459;-65
2022/07/09 02:48:07;;;;;;;0.10;0.10;;;22.10;75.50;;;;;;3956893;29;20134;-66
2022/07/09 02:50:30;;;;;;;0.00;0.00;;;22.10;75.60;;;;;;3926314;29;20101;-66
2022/07/09 02:52:53;;;;;;;0.10;0.10;;;22.10;75.60;;;;;;3950222;29;20055;-65
2022/07/09 02:55:17;;;;;;;0.00;0.00;;;22.10;75.60;;;;;;3958058;29;20051;-66
2022/07/09 02:57:40;;;;;;;0.00;0.00;;;22.10;75.70;;;;;;3968508;29;20050;-66
2022/07/09 03:00:06;;;;;;;0.10;0.10;;;22.10;75.70;;;;;;3967463;29;20054;-66
2022/07/09 03:02:31;;;;;;;0.00;0.00;;;22.10;75.80;;;;;;3931861;29;20054;-62
2022/07/09 03:04:55;;;;;;;0.00;0.00;;;22.00;75.80;;;;;;3944887;30;20142;-62
2022/07/09 03:07:19;;;;;;;0.00;0.00;;;22.10;75.80;;;;;;3925816;29;20055;-63
2022/07/09 03:09:42;;;;;;;0.00;0.00;;;22.00;75.80;;;;;;3951034;29;20062;-63
2022/07/09 03:12:08;;;;;;;0.00;0.00;;;22.00;75.90;;;;;;3937510;29;20068;-64
2022/07/09 03:14:32;;;;;;;0.00;0.00;;;22.10;76.00;;;;;;3946284;30;20508;-63
2022/07/09 03:16:56;;;;;;;0.00;0.00;;;22.00;75.90;;;;;;3948715;30;20571;-63
2022/07/09 03:19:21;;;;;;;0.00;0.00;;;22.00;76.00;;;;;;3932390;30;20504;-63
2022/07/09 03:21:45;;;;;;;0.10;0.10;;;22.00;76.00;;;;;;3936844;29;20052;-63
2022/07/09 03:24:09;;;;;;;0.00;0.00;;;22.00;76.10;;;;;;3949078;29;20070;-63
2022/07/09 03:26:33;;;;;;;0.10;0.10;;;22.00;76.10;;;;;;3963512;29;20122;-62
2022/07/09 03:28:56;;;;;;;0.20;0.20;;;22.00;76.10;;;;;;3951866;29;20518;-64
2022/07/09 03:31:20;;;;;;;0.00;0.00;;;22.00;76.10;;;;;;3936891;29;20124;-63
2022/07/09 03:33:44;;;;;;;0.00;0.00;;;22.00;76.10;;;;;;3945013;30;20055;-65
2022/07/09 03:36:10;;;;;;;1.02;1.02;;;22.00;76.10;;;;;;3940734;30;20047;-65
2022/07/09 03:38:32;;;;;;;0.00;0.00;;;22.00;76.10;;;;;;3952124;30;20063;-66
2022/07/09 03:40:56;;;;;;;0.00;0.00;;;22.00;76.10;;;;;;3953029;30;20496;-66
2022/07/09 03:43:19;;;;;;;0.00;0.00;;;22.00;76.10;;;;;;3948708;30;20492;-66
2022/07/09 03:45:43;;;;;;;0.10;0.10;;;22.00;76.10;;;;;;3940192;30;20061;-66
2022/07/09 03:48:08;;;;;;;0.00;0.00;;;22.00;76.10;;;;;;3937048;30;20626;-66
2022/07/09 03:50:32;;;;;;;0.00;0.00;;;22.00;76.10;;;;;;3948243;29;20051;-66
2022/07/09 03:52:58;;;;;;;0.35;0.35;;;22.00;76.20;;;;;;3964532;29;20407;-66
2022/07/09 03:55:22;;;;;;;0.00;0.00;;;22.00;76.10;;;;;;3943606;29;20066;-66
2022/07/09 03:57:45;;;;;;;0.00;0.00;;;22.00;76.20;;;;;;3951746;30;20056;-66
2022/07/09 04:00:10;;;;;;;0.00;0.00;;;22.00;76.20;;;;;;3951150;30;21402;-66
2022/07/09 04:02:35;;;;;;;0.00;0.00;;;22.00;76.20;;;;;;3949805;30;20050;-63
2022/07/09 04:04:58;;;;;;;0.00;0.00;;;22.00;76.10;;;;;;3943310;30;20054;-62
2022/07/09 04:07:22;;;;;;;0.00;0.00;;;22.00;76.20;;;;;;3950165;30;20063;-62
2022/07/09 04:09:47;;;;;;;0.00;0.00;;;22.00;76.20;;;;;;3949603;30;20059;-62
2022/07/09 04:12:10;;;;;;;0.10;0.10;;;22.00;76.20;;;;;;3947891;30;20410;-63
2022/07/09 04:14:34;;;;;;;0.88;0.55;;;22.00;76.20;;;;;;3951737;30;20630;-63
2022/07/09 04:16:58;;;;;;;0.00;0.00;;;22.00;76.20;;;;;;3954617;30;20055;-63
2022/07/09 04:19:22;;;;;;;0.00;0.00;;;22.00;76.30;;;;;;3936080;30;20055;-64
2022/07/09 04:21:49;;;;;;;0.00;0.00;;;22.00;76.30;;;;;;3951113;30;20054;-63
2022/07/09 04:24:15;;;;;;;0.00;0.00;;;22.00;76.30;;;;;;3941233;30;20381;-62
2022/07/09 04:26:40;;;;;;;0.00;0.00;;;22.00;76.20;;;;;;3954466;30;20117;-62
2022/07/09 04:29:04;;;;;;;0.00;0.00;;;22.00;76.30;;;;;;3956148;30;20531;-63
2022/07/09 04:31:28;;;;;;;0.00;0.00;;;22.00;76.30;;;;;;3941383;30;20432;-63
2022/07/09 04:33:51;;;;;;;0.00;0.00;;;22.00;76.30;;;;;;3956248;30;20059;-62
2022/07/09 04:36:15;;;;;;;0.00;0.00;;;22.00;76.30;;;;;;3942071;30;20144;-63
2022/07/09 04:38:39;;;;;;;0.00;0.00;;;22.00;76.40;;;;;;3943864;30;20051;-62
2022/07/09 04:41:02;;;;;;;0.00;0.00;;;22.00;76.40;;;;;;3941479;30;20066;-62
2022/07/09 04:43:26;;;;;;;0.00;0.00;;;22.00;76.40;;;;;;3942402;30;20063;-62
2022/07/09 04:45:49;;;;;;;0.00;0.00;;;22.00;76.30;;;;;;3954232;30;20527;-60
2022/07/09 04:48:13;;;;;;;0.00;0.00;;;22.00;76.80;;;;;;3941144;30;20051;-62
2022/07/09 04:50:36;;;;;;;0.00;0.00;;;22.00;77.20;;;;;;3941200;30;20198;-64
2022/07/09 04:53:00;;;;;;;0.10;0.10;;;22.00;77.00;;;;;;3945517;29;20126;-63
2022/07/09 04:55:23;;;;;;;0.10;0.10;;;22.00;76.80;;;;;;3970087;29;20126;-63
2022/07/09 04:57:46;;;;;;;6.93;0.70;;;22.00;76.70;;;;;;3968191;29;20062;-63
2022/07/09 05:00:12;;;;;;;0.10;0.10;;;22.00;76.70;;;;;;3957811;29;20071;-63
2022/07/09 05:02:35;;;;;;;0.00;0.00;;;22.00;76.70;;;;;;3965553;29;20443;-62
2022/07/09 05:04:58;;;;;;;0.30;0.30;;;22.00;76.70;;;;;;3955363;29;20143;-63
2022/07/09 05:07:21;;;;;;;0.00;0.00;;;22.00;76.80;;;;;;3956851;29;20094;-62
2022/07/09 05:09:48;;;;;;;0.00;0.00;;;22.00;76.80;;;;;;3937457;29;20132;-63
2022/07/09 05:12:11;;;;;;;3.20;1.48;;;22.00;76.80;;;;;;3940840;29;20567;-62
2022/07/09 05:14:34;;;;;;;0.00;0.00;;;22.00;76.80;;;;;;3954018;29;20066;-63
2022/07/09 05:16:58;;;;;;;0.00;0.00;;;21.90;76.80;;;;;;3951455;29;20055;-64
2022/07/09 05:19:22;;;;;;;0.00;0.00;;;21.90;76.90;;;;;;3936482;29;20143;-63
2022/07/09 05:21:46;;;;;;;0.00;0.00;;;21.90;76.90;;;;;;3932127;29;20071;-64
2022/07/09 05:24:10;;;;;;;0.43;0.43;;;22.00;77.00;;;;;;3951606;29;20146;-63
2022/07/09 05:26:34;;;;;;;0.00;0.00;;;21.90;77.00;;;;;;3966387;29;21711;-62
2022/07/09 05:28:57;;;;;;;0.00;0.00;;;22.00;77.10;;;;;;3950050;29;20075;-63
2022/07/09 05:31:20;;;;;;;0.00;0.00;;;21.90;77.00;;;;;;3959145;29;20422;-63
2022/07/09 05:34:00;;;;;;;0.20;0.20;;;21.90;77.10;;;;;;3939420;29;20567;-62
2022/07/09 05:36:23;;;;;;;1.73;1.02;;;21.90;77.10;;;;;;3950324;29;20055;-63
2022/07/09 05:38:48;;;;;;;0.00;0.00;;;21.90;77.10;;;;;;3950033;29;20147;-63
2022/07/09 05:41:11;;;;;;;0.00;0.00;;;21.90;77.10;;;;;;3950341;30;20432;-63
2022/07/09 05:43:35;;;;;;;0.00;0.00;;;21.90;77.20;;;;;;3937345;30;20056;-63
2022/07/09 05:45:59;;;;;;;0.65;0.47;;;21.90;77.20;;;;;;3952237;30;20517;-63
2022/07/09 05:48:22;;;;;;;0.00;0.00;;;21.90;77.40;;;;;;3939570;29;20111;-63
2022/07/09 05:50:47;;;;;;;0.00;0.00;;;21.90;77.40;;;;;;3954232;29;20135;-63
2022/07/09 05:53:10;;;;;;;0.43;0.43;;;22.00;77.40;;;;;;3938905;29;20051;-63
2022/07/09 05:55:34;;;;;;;0.00;0.00;;;21.90;77.20;;;;;;3961404;29;20133;-63
2022/07/09 05:57:57;;;;;;;0.47;0.47;;;22.00;77.20;;;;;;3967746;29;20098;-63
2022/07/09 06:00:20;;;;;;;0.10;0.10;;;21.90;77.00;;;;;;3944192;29;20060;-63
2022/07/09 06:02:44;;;;;;;0.00;0.00;;;22.00;77.10;;;;;;3952037;29;20059;-63
2022/07/09 06:05:08;;;;;;;0.00;0.00;;;22.00;77.00;;;;;;3936896;30;20145;-64
2022/07/09 06:07:32;;;;;;;0.00;0.00;;;22.00;76.90;;;;;;3955950;29;20077;-64
2022/07/09 06:09:56;;;;;;;0.00;0.00;;;22.00;77.00;;;;;;3951568;29;20128;-65
2022/07/09 06:12:20;;;;;;;0.47;0.47;;;21.90;76.80;;;;;;3952160;29;20075;-64
2022/07/09 06:14:43;;;;;;;0.00;0.00;;;22.00;76.80;;;;;;3968020;29;20054;-64
2022/07/09 06:17:06;;;;;;;0.10;0.10;;;21.90;76.80;;;;;;3967172;29;20063;-65
2022/07/09 06:19:30;;;;;;;0.00;0.00;;;22.00;76.80;;;;;;3968454;29;20112;-64
2022/07/09 06:21:53;;;;;;;0.00;0.00;;;22.00;76.80;;;;;;3968814;29;20065;-64
2022/07/09 06:24:17;;;;;;;0.00;0.00;;;22.00;76.70;;;;;;3966782;29;20579;-64
2022/07/09 06:26:42;;;;;;;0.00;0.00;;;22.00;76.70;;;;;;3968636;29;20055;-63
2022/07/09 06:29:05;;;;;;;7.13;1.92;;;22.00;76.70;;;;;;3969939;29;20142;-63
2022/07/09 06:31:28;;;;;;;0.30;0.30;;;22.00;76.70;;;;;;3956281;29;20575;-64
2022/07/09 06:33:52;;;;;;;0.00;0.00;;;22.00;76.70;;;;;;3968227;29;20499;-63
2022/07/09 06:36:20;;;;;;;0.10;0.10;;;22.00;76.60;;;;;;3969333;29;20043;-64
2022/07/09 06:41:21;;;;;;;1.10;1.10;;;22.00;76.50;;;;;;3968423;29;20495;-63
2022/07/09 06:43:45;;;;;;;0.05;0.05;;;22.00;76.50;;;;;;3953249;30;20071;-64
2022/07/09 06:46:09;;;;;;;0.00;0.00;;;22.00;76.50;;;;;;3954064;30;20055;-63
2022/07/09 06:48:33;;;;;;;0.00;0.00;;;22.00;76.60;;;;;;3937801;30;20082;-65
2022/07/09 06:50:57;;;;;;;0.00;0.00;;;22.00;76.60;;;;;;3950101;30;20138;-64
2022/07/09 06:53:20;;;;;;;0.00;0.00;;;22.00;76.50;;;;;;3937612;30;20490;-64
2022/07/09 06:55:44;;;;;;;0.00;0.00;;;22.00;76.60;;;;;;3951312;30;20072;-65
2022/07/09 06:58:09;;;;;;;0.00;0.00;;;22.00;76.50;;;;;;3935669;30;20051;-64
2022/07/09 07:00:34;;;;;;;0.00;0.00;;;22.00;76.60;;;;;;3949070;30;20059;-64
2022/07/09 07:02:59;;;;;;;0.00;0.00;;;22.00;76.50;;;;;;3946594;30;20282;-64
2022/07/09 07:05:23;;;;;;;0.00;0.00;;;22.00;76.60;;;;;;3949359;30;20074;-64
2022/07/09 07:07:46;;;;;;;0.00;0.00;;;22.00;76.50;;;;;;3951621;30;20068;-64
2022/07/09 07:10:11;;;;;;;0.08;0.08;;;22.00;76.50;;;;;;3927968;30;20044;-63
2022/07/09 07:12:34;;;;;;;0.00;0.00;;;22.00;76.50;;;;;;3936207;30;20063;-64
2022/07/09 07:14:59;;;;;;;0.00;0.00;;;22.00;76.50;;;;;;3923608;30;20131;-64
2022/07/09 07:17:24;;;;;;;0.00;0.00;;;22.00;76.60;;;;;;3924584;30;20198;-63
2022/07/09 07:19:48;;;;;;;0.00;0.00;;;22.00;76.50;;;;;;3941739;30;20068;-63
2022/07/09 07:22:11;;;;;;;0.00;0.00;;;22.00;76.50;;;;;;3941000;30;20055;-64
2022/07/09 07:24:34;;;;;;;2.38;2.00;;;22.00;76.50;;;;;;3928176;30;20060;-64
2022/07/09 07:26:56;;;;;;;0.00;0.00;;;22.00;76.40;;;;;;3943071;30;20051;-64
2022/07/09 07:29:18;;;;;;;0.10;0.10;;;22.10;76.50;;;;;;3941832;30;20134;-64
2022/07/09 07:31:41;;;;;;;0.00;0.00;;;22.00;76.40;;;;;;3942247;30;20058;-64
2022/07/09 07:34:04;;;;;;;0.00;0.00;;;22.10;76.50;;;;;;3942124;30;20055;-64
2022/07/09 07:36:26;;;;;;;0.00;0.00;;;22.10;76.50;;;;;;3940863;30;20059;-64
2022/07/09 07:38:49;;;;;;;0.00;0.00;;;22.10;76.50;;;;;;3954989;30;20965;-63
2022/07/09 07:41:12;;;;;;;0.00;0.00;;;22.10;76.40;;;;;;3955845;30;20130;-63
2022/07/09 07:43:34;;;;;;;0.00;0.00;;;22.10;76.30;;;;;;3955953;30;20068;-64
2022/07/09 07:45:57;;;;;;;0.00;0.00;;;22.10;76.30;;;;;;3955893;30;20059;-64
2022/07/09 07:48:27;;;;;;;0.60;0.55;;;22.10;76.30;;;;;;3955641;30;20116;-63
2022/07/09 07:50:49;;;;;;;0.00;0.00;;;22.10;76.30;;;;;;3948017;30;20055;-63
2022/07/09 07:53:11;;;;;;;0.00;0.00;;;22.10;76.30;;;;;;3941612;30;20055;-64
2022/07/09 07:55:33;;;;;;;0.00;0.00;;;22.20;77.10;;;;;;3949307;30;20059;-64
2022/07/09 07:57:55;;;;;;;0.00;0.00;;;22.20;76.20;;;;;;3956571;30;20151;-64
2022/07/09 08:00:17;;;;;;;0.00;0.00;;;22.20;76.10;;;;;;3956658;30;20108;-64
2022/07/09 08:02:39;;;;;;;0.00;0.00;;;22.20;76.00;;;;;;3956879;30;20520;-64
2022/07/09 08:05:03;;;;;;;0.00;0.00;;;22.20;75.90;;;;;;3956408;30;20187;-64
2022/07/09 08:07:27;;;;;;;0.00;0.00;;;22.30;75.90;;;;;;3956621;30;20521;-64
2022/07/09 08:09:49;;;;;;;3.72;1.20;;;22.30;75.80;;;;;;3955684;30;20077;-64
2022/07/09 08:12:12;;;;;;;0.00;0.00;;;22.30;75.70;;;;;;3947457;30;20051;-65
2022/07/09 08:14:34;;;;;;;0.00;0.00;;;22.30;75.60;;;;;;3956697;30;20089;-65
2022/07/09 08:16:56;;;;;;;0.00;0.00;;;22.40;75.50;;;;;;3931774;30;20093;-65
2022/07/09 08:19:18;;;;;;;0.00;0.00;;;22.40;75.40;;;;;;3941895;30;20059;-65
2022/07/09 08:21:41;;;;;;;0.00;0.00;;;22.40;75.20;;;;;;3940116;30;20062;-65
2022/07/09 08:24:05;;;;;;;0.00;0.00;;;22.40;75.00;;;;;;3940180;30;20055;-65
2022/07/09 08:26:28;;;;;;;0.00;0.00;;;22.50;75.00;;;;;;3953772;30;20176;-65
2022/07/09 08:28:50;;;;;;;0.00;0.00;;;22.50;74.90;;;;;;3939697;30;20517;-64
2022/07/09 08:31:12;;;;;;;0.13;0.13;;;22.50;74.80;;;;;;3940339;30;20067;-65
2022/07/09 08:33:34;;;;;;;0.00;0.00;;;22.60;74.60;;;;;;3950798;30;20060;-65
2022/07/09 08:35:56;;;;;;;0.00;0.00;;;22.60;74.40;;;;;;3955155;30;20112;-64
2022/07/09 08:38:20;;;;;;;0.00;0.00;;;22.60;74.30;;;;;;3955553;29;20055;-65
2022/07/09 08:40:42;;;;;;;0.00;0.00;;;22.60;74.20;;;;;;3955605;30;20090;-65
2022/07/09 08:43:05;;;;;;;0.00;0.00;;;22.60;74.20;;;;;;3952619;29;20051;-65
2022/07/09 08:45:30;;;;;;;0.63;0.63;;;22.60;74.00;;;;;;3969264;29;20487;-65
2022/07/09 08:47:53;;;;;;;0.00;0.00;;;22.60;74.00;;;;;;3957290;29;20055;-66
2022/07/09 08:50:16;;;;;;;0.00;0.00;;;22.60;74.00;;;;;;3968159;29;20058;-65
2022/07/09 08:52:40;;;;;;;0.00;0.00;;;22.60;74.00;;;;;;3969919;29;20142;-65
2022/07/09 08:55:07;;;;;;;0.03;0.03;;;22.60;74.00;;;;;;3969392;29;20051;-66
2022/07/09 08:57:29;;;;;;;0.28;0.28;;;22.70;74.10;;;;;;3969542;29;20075;-65
2022/07/09 08:59:52;;;;;;;1.25;1.15;;;22.70;73.90;;;;;;3952217;29;20083;-65
2022/07/09 09:02:14;;;;;;;1.45;0.75;;;22.70;74.60;;;;;;3954563;29;20075;-66
2022/07/09 09:04:39;;;;;;;3.40;1.48;;;22.70;73.70;;;;;;3955350;29;20544;-65
2022/07/09 09:07:13;;;;;;;0.00;0.00;;;22.70;73.50;;;;;;3941925;29;20043;-66
2022/07/09 09:09:36;;;;;;;0.00;0.00;;;22.70;73.30;;;;;;3956338;29;20051;-65
2022/07/09 09:12:00;;;;;;;0.00;0.00;;;22.80;74.00;;;;;;3954735;30;20140;-65
2022/07/09 09:14:25;;;;;;;0.20;0.20;;;22.70;73.10;;;;;;3955013;30;20146;-65
2022/07/09 09:16:47;;;;;;;0.00;0.00;;;22.80;73.10;;;;;;3955350;30;20492;-66
2022/07/09 09:19:10;;;;;;;0.00;0.00;;;22.80;72.90;;;;;;3942032;30;20397;-65
2022/07/09 09:21:32;;;;;;;0.00;0.00;;;22.80;72.90;;;;;;3955469;30;20591;-65
2022/07/09 09:23:57;;;;;;;0.00;0.00;;;22.80;72.80;;;;;;3955825;30;20105;-65
2022/07/09 09:26:21;;;;;;;0.00;0.00;;;22.80;72.70;;;;;;3941734;30;20097;-65
2022/07/09 09:28:48;;;;;;;0.00;0.00;;;22.80;72.50;;;;;;3942038;30;20052;-65
2022/07/09 09:31:19;;;;;;;0.00;0.00;;;22.80;72.40;;;;;;3956169;29;20047;-65
2022/07/09 09:33:42;;;;;;;0.00;0.00;;;22.90;72.40;;;;;;3955051;29;20123;-65
2022/07/09 09:36:04;;;;;;;0.00;0.00;;;22.90;72.30;;;;;;3966342;29;20414;-63
2022/07/09 09:38:29;;;;;;;0.00;0.00;;;22.90;72.10;;;;;;3970108;29;20103;-64
2022/07/09 09:40:51;;;;;;;0.00;0.00;;;23.00;72.10;;;;;;3958572;29;20055;-64
2022/07/09 09:43:19;;;;;;;0.00;0.00;;;23.00;71.90;;;;;;3955147;29;20063;-64
2022/07/09 09:45:43;;;;;;;0.00;0.00;;;23.00;71.80;;;;;;3979381;29;20124;-63
2022/07/09 09:48:06;;;;;;;0.00;0.00;;;23.00;71.70;;;;;;3979719;29;20058;-64
2022/07/09 09:50:29;;;;;;;0.00;0.00;;;23.00;71.60;;;;;;3960029;29;20137;-63
2022/07/09 09:52:53;;;;;;;0.00;0.00;;;23.00;71.50;;;;;;3969591;29;20089;-64
2022/07/09 09:55:16;;;;;;;0.00;0.00;;;23.00;71.50;;;;;;3970398;29;20137;-63
2022/07/09 09:57:39;;;;;;;0.35;0.35;;;23.00;71.30;;;;;;3965854;29;20715;-64
2022/07/09 10:00:03;;;;;;;0.00;0.00;;;23.00;71.20;;;;;;3957899;29;20097;-64
2022/07/09 10:02:35;;;;;;;0.00;0.00;;;23.10;71.10;;;;;;3973216;29;20061;-63
2022/07/09 10:04:58;;;;;;;0.00;0.00;;;23.10;71.00;;;;;;3944508;30;20067;-64
2022/07/09 10:07:20;;;;;;;0.00;0.00;;;23.10;70.80;;;;;;3957763;30;20109;-64
2022/07/09 10:09:53;;;;;;;0.00;0.00;;;23.10;70.40;;;;;;3957252;30;20591;-65
2022/07/09 10:12:26;;;;;;;1.85;0.43;;;23.20;70.40;;;;;;3957628;30;20063;-64
2022/07/09 10:14:49;;;;;;;0.00;0.00;;;23.20;70.30;;;;;;3956025;30;20047;-64
2022/07/09 10:17:14;;;;;;;0.00;0.00;;;23.20;70.30;;;;;;3963561;29;20058;-62
2022/07/09 10:19:38;;;;;;;5.00;1.77;;;23.20;70.60;;;;;;3963288;29;20201;-63
2022/07/09 10:22:01;;;;;;;0.00;0.00;;;23.20;70.50;;;;;;3958612;29;20552;-62
2022/07/09 10:24:31;;;;;;;0.00;0.00;;;23.20;70.40;;;;;;3944776;29;20066;-63
2022/07/09 10:26:53;;;;;;;0.00;0.00;;;23.30;70.40;;;;;;3957283;29;20059;-63
2022/07/09 10:29:23;;;;;;;0.00;0.00;;;23.30;70.30;;;;;;3957312;29;20393;-62
2022/07/09 10:31:46;;;;;;;0.00;0.00;;;23.30;70.20;;;;;;3957455;29;20120;-62
2022/07/09 10:34:18;;;;;;;0.00;0.00;;;23.30;70.20;;;;;;3959050;29;20083;-61
2022/07/09 10:36:41;;;;;;;0.10;0.10;;;23.30;70.20;;;;;;3963536;29;20540;-61
2022/07/09 10:39:13;;;;;;;0.05;0.05;;;23.30;70.30;;;;;;3972000;29;20154;-62
2022/07/09 10:41:35;;;;;;;0.35;0.35;;;23.30;70.30;;;;;;3972328;29;20047;-62
2022/07/09 10:43:57;;;;;;;0.00;0.00;;;23.30;70.20;;;;;;3972364;29;20490;-62
2022/07/09 10:46:19;;;;;;;0.00;0.00;;;23.20;70.00;;;;;;3972301;29;20472;-62
2022/07/09 10:48:41;;;;;;;0.28;0.13;;;23.20;70.30;;;;;;3972465;29;20055;-62
2022/07/09 10:51:04;;;;;;;0.00;0.00;;;23.20;70.20;;;;;;3971438;29;20079;-62
2022/07/09 10:53:30;;;;;;;0.17;0.17;;;23.20;70.40;;;;;;3969229;29;20057;-63
2022/07/09 10:55:52;;;;;;;0.00;0.00;;;23.20;70.10;;;;;;3956961;29;20047;-63
2022/07/09 10:58:18;;;;;;;0.00;0.00;;;23.10;69.80;;;;;;3956949;29;20055;-63
2022/07/09 11:00:40;;;;;;;0.00;0.00;;;23.10;70.10;;;;;;3957473;29;20492;-63
2022/07/09 11:03:03;;;;;;;0.00;0.00;;;23.10;70.20;;;;;;3957469;29;20062;-63
2022/07/09 11:05:27;;;;;;;0.10;0.10;;;23.00;70.10;;;;;;3958503;29;20154;-63
2022/07/09 11:07:59;;;;;;;0.00;0.00;;;23.00;71.20;;;;;;3956707;30;20086;-63
2022/07/09 11:10:23;;;;;;;0.08;0.08;;;23.00;69.90;;;;;;3957023;29;20079;-63
2022/07/09 11:12:48;;;;;;;1.38;0.47;;;23.00;69.40;;;;;;3964773;29;20671;-63
2022/07/09 11:15:18;;;;;;;0.13;0.13;;;23.00;69.60;;;;;;3959088;29;20492;-63
2022/07/09 11:17:40;;;;;;;0.20;0.20;;;22.90;69.70;;;;;;3957164;29;20058;-63
2022/07/09 11:20:03;;;;;;;0.00;0.00;;;22.90;69.70;;;;;;3971708;29;20459;-62
2022/07/09 11:22:25;;;;;;;0.00;0.00;;;22.90;69.80;;;;;;3971421;29;20063;-63
2022/07/09 11:24:47;;;;;;;0.00;0.00;;;22.90;69.50;;;;;;3972247;29;20547;-63
2022/07/09 11:27:10;;;;;;;0.00;0.00;;;22.90;69.50;;;;;;3970965;29;20434;-63
2022/07/09 11:29:33;;;;;;;0.00;0.00;;;22.90;69.30;;;;;;3970365;29;20518;-62
2022/07/09 11:31:55;;;;;;;0.00;0.00;;;22.90;69.00;;;;;;3953477;29;20058;-63
2022/07/09 11:34:18;;;;;;;0.25;0.25;;;22.90;68.00;;;;;;3960303;29;20132;-63
2022/07/09 11:36:42;;;;;;;0.00;0.00;;;22.90;66.70;;;;;;3959959;29;20475;-63
2022/07/09 11:39:04;;;;;;;0.22;0.22;;;22.90;65.10;;;;;;3949890;29;20111;-63
2022/07/09 11:41:26;;;;;;;0.35;0.35;;;23.00;64.50;;;;;;3963410;29;20080;-63
2022/07/09 11:43:50;;;;;;;0.00;0.00;;;23.00;64.70;;;;;;3956712;30;20097;-63
2022/07/09 11:46:17;;;;;;;0.00;0.00;;;23.00;64.70;;;;;;3955935;30;20552;-63
2022/07/09 11:48:49;;;;;;;1.08;0.93;;;23.00;65.40;;;;;;3942035;30;20477;-63
2022/07/09 11:51:12;;;;;;;0.00;0.00;;;23.00;65.50;;;;;;3955679;30;20147;-63
2022/07/09 11:53:34;;;;;;;0.00;0.00;;;23.00;64.70;;;;;;3956286;30;20059;-63
2022/07/09 11:56:00;;;;;;;0.00;0.00;;;23.00;65.60;;;;;;3956411;30;20074;-62
2022/07/09 11:58:23;;;;;;;0.00;0.00;;;23.00;65.40;;;;;;3942659;30;20082;-63
2022/07/09 12:00:46;;;;;;;0.00;0.00;;;23.00;64.40;;;;;;3956543;30;20420;-63
2022/07/09 12:03:11;;;;;;;5.63;1.23;;;23.10;65.30;;;;;;3956651;30;20466;-62
2022/07/09 12:05:35;;;;;;;0.00;0.00;;;23.10;64.20;;;;;;3941107;30;20067;-63
2022/07/09 12:07:59;;;;;;;0.00;0.00;;;23.10;64.10;;;;;;3955897;30;20568;-63
2022/07/09 12:10:27;;;;;;;0.00;0.00;;;23.10;63.00;;;;;;3955352;30;20051;-63
2022/07/09 12:12:49;;;;;;;0.00;0.00;;;23.10;63.70;;;;;;3956265;30;20058;-64
2022/07/09 12:15:11;;;;;;;1.55;1.45;;;23.10;63.30;;;;;;3956488;30;20058;-64
2022/07/09 12:17:35;;;;;;;0.00;0.00;;;23.10;63.00;;;;;;3956458;30;20138;-63
2022/07/09 12:19:58;;;;;;;0.00;0.00;;;23.10;62.40;;;;;;3950269;30;20066;-63
2022/07/09 12:22:23;;;;;;;0.00;0.00;;;23.20;62.10;;;;;;3941046;30;20051;-63
2022/07/09 12:24:45;;;;;;;0.00;0.00;;;23.10;61.30;;;;;;3941410;30;20142;-64
2022/07/09 12:27:07;;;;;;;0.00;0.00;;;23.10;62.10;;;;;;3941241;30;20064;-63
2022/07/09 12:29:45;;;;;;;0.00;0.00;;;23.10;61.00;;;;;;3950910;29;20134;-63
2022/07/09 12:32:07;;;;;;;0.00;0.00;;;23.10;59.90;;;;;;3949682;29;20085;-63